Time;durP1;ratioP1;P1;durP2;ratioP2;P2;SDS_P1;SDS_P2;PMS_P1;PMS_P2;Temp;Humidity;BMP_temperature;BMP_pressure;BME280_temperature;BME280_humidity;BME280_pressure;Samples;Min_cycle;Max_cycle;Signal;HPM_P1;HPM_P2
2023/01/04 00:01:05;;;;;;;7.47;2.35;;;8.10;99.90;;;;;;5075064;28;20197;-72
2023/01/04 00:03:31;;;;;;;7.45;2.30;;;8.10;99.90;;;;;;5075561;28;20404;-72
2023/01/04 00:05:59;;;;;;;10.50;2.80;;;8.20;99.90;;;;;;5075285;28;20127;-72
2023/01/04 00:08:24;;;;;;;8.88;2.33;;;8.20;99.90;;;;;;5075239;28;20051;-72
2023/01/04 00:10:50;;;;;;;9.43;2.60;;;8.20;99.90;;;;;;5074980;28;20044;-72
2023/01/04 00:13:15;;;;;;;11.85;2.60;;;8.20;99.90;;;;;;5074937;28;20040;-72
2023/01/04 00:15:41;;;;;;;10.50;2.70;;;8.20;99.90;;;;;;5075129;28;20044;-72
2023/01/04 00:18:07;;;;;;;12.57;2.63;;;8.20;99.90;;;;;;5074763;28;20072;-72
2023/01/04 00:20:32;;;;;;;11.70;2.97;;;8.20;99.90;;;;;;5074815;28;20043;-72
2023/01/04 00:22:58;;;;;;;11.63;2.83;;;8.30;99.90;;;;;;5074674;28;20046;-72
2023/01/04 00:25:24;;;;;;;12.00;2.63;;;8.20;99.90;;;;;;5074760;28;20051;-72
2023/01/04 00:27:51;;;;;;;13.07;3.38;;;8.20;99.90;;;;;;5074612;28;20040;-72
2023/01/04 00:30:17;;;;;;;10.25;2.75;;;8.20;99.90;;;;;;5074663;28;20040;-72
2023/01/04 00:33:01;;;;;;;11.00;3.08;;;8.20;99.90;;;;;;5076120;28;20035;-72
2023/01/04 00:35:26;;;;;;;15.10;3.00;;;8.20;99.90;;;;;;5075163;28;20036;-72
2023/01/04 00:37:52;;;;;;;11.15;3.03;;;8.20;99.90;;;;;;5074452;28;20089;-72
2023/01/04 00:40:17;;;;;;;8.48;2.65;;;8.10;99.90;;;;;;5074439;28;20120;-72
2023/01/04 00:42:43;;;;;;;10.27;3.33;;;8.10;99.90;;;;;;5074824;28;20040;-73
2023/01/04 00:45:09;;;;;;;9.25;2.92;;;8.10;99.90;;;;;;5074709;28;20044;-72
2023/01/04 00:47:34;;;;;;;11.63;3.25;;;8.00;99.90;;;;;;5074355;28;20485;-72
2023/01/04 00:50:00;;;;;;;10.60;3.30;;;8.00;99.90;;;;;;5074245;28;20051;-72
2023/01/04 00:52:27;;;;;;;11.98;3.40;;;8.00;99.90;;;;;;5074579;28;20151;-72
2023/01/04 00:54:52;;;;;;;14.55;3.17;;;8.00;99.90;;;;;;5073485;28;20509;-72
2023/01/04 00:57:18;;;;;;;11.88;3.20;;;8.00;99.90;;;;;;5074102;28;20405;-72
2023/01/04 00:59:43;;;;;;;13.63;3.15;;;8.00;99.90;;;;;;5074135;28;20094;-72
2023/01/04 01:02:09;;;;;;;9.00;2.75;;;8.00;99.90;;;;;;5073971;28;20051;-72
2023/01/04 01:04:35;;;;;;;8.48;3.08;;;8.00;99.90;;;;;;5074371;28;20040;-72
2023/01/04 01:07:00;;;;;;;8.00;2.67;;;8.00;99.90;;;;;;5073956;28;20056;-72
2023/01/04 01:09:26;;;;;;;8.82;2.65;;;8.00;99.90;;;;;;5074198;28;20037;-72
2023/01/04 01:11:52;;;;;;;11.65;2.65;;;8.00;99.90;;;;;;5075137;28;20090;-71
2023/01/04 01:14:22;;;;;;;11.65;3.20;;;8.00;99.90;;;;;;5074133;28;20032;-72
2023/01/04 01:16:47;;;;;;;8.25;2.58;;;8.00;99.90;;;;;;5073807;28;20041;-71
2023/01/04 01:19:13;;;;;;;7.18;2.88;;;8.00;99.90;;;;;;5074154;28;20036;-72
2023/01/04 01:21:39;;;;;;;8.70;2.55;;;8.00;99.90;;;;;;5073699;28;20069;-72
2023/01/04 01:24:05;;;;;;;10.18;2.70;;;8.00;99.90;;;;;;5073661;28;20040;-71
2023/01/04 01:26:30;;;;;;;8.38;2.97;;;8.00;99.90;;;;;;5073528;28;20042;-71
2023/01/04 01:28:57;;;;;;;6.72;2.55;;;8.00;99.90;;;;;;5073588;28;20037;-72
2023/01/04 01:31:25;;;;;;;8.20;2.50;;;8.00;99.90;;;;;;5073496;28;20100;-72
2023/01/04 01:33:53;;;;;;;12.23;3.00;;;8.00;99.90;;;;;;5073509;28;20044;-72
2023/01/04 01:36:20;;;;;;;7.60;3.20;;;8.00;99.90;;;;;;5073419;28;20091;-72
2023/01/04 01:38:46;;;;;;;9.48;2.65;;;8.00;99.90;;;;;;5074933;28;20045;-72
2023/01/04 01:41:18;;;;;;;10.15;2.60;;;8.00;99.90;;;;;;5073285;28;20048;-72
2023/01/04 01:43:59;;;;;;;7.63;2.70;;;8.00;99.90;;;;;;5073285;28;20043;-71
2023/01/04 01:46:50;;;;;;;8.05;2.90;;;8.00;99.90;;;;;;5073159;28;20074;-71
2023/01/04 01:49:27;;;;;;;7.68;2.50;;;8.00;99.90;;;;;;5056300;28;20489;-72
2023/01/04 01:51:56;;;;;;;5.47;2.60;;;7.90;99.90;;;;;;5073232;28;20501;-72
2023/01/04 01:54:26;;;;;;;11.27;3.35;;;8.00;99.90;;;;;;5073115;28;20060;-71
2023/01/04 01:56:55;;;;;;;7.97;3.00;;;8.00;99.90;;;;;;5073370;28;20444;-71
2023/01/04 01:59:21;;;;;;;9.27;2.80;;;8.00;99.90;;;;;;5072971;28;20040;-71
2023/01/04 02:01:47;;;;;;;10.60;3.35;;;8.00;99.90;;;;;;5072983;28;20044;-71
2023/01/04 02:04:14;;;;;;;7.80;3.17;;;8.00;99.90;;;;;;5072931;28;20382;-72
2023/01/04 02:06:44;;;;;;;5.85;2.70;;;8.00;99.90;;;;;;5072902;28;20125;-72
2023/01/04 02:09:11;;;;;;;7.15;2.60;;;8.00;99.90;;;;;;5072816;28;20033;-72
2023/01/04 02:11:37;;;;;;;6.97;2.70;;;8.00;99.90;;;;;;5072832;28;20036;-73
2023/01/04 02:17:31;;;;;;;7.32;2.85;;;8.00;99.90;;;;;;5072560;28;20052;-71
2023/01/04 02:20:28;;;;;;;6.57;2.60;;;8.00;99.90;;;;;;5072667;28;20501;-72
2023/01/04 02:23:27;;;;;;;4.97;2.25;;;8.00;99.90;;;;;;5072496;28;20048;-72
2023/01/04 02:26:24;;;;;;;6.78;2.70;;;8.00;99.90;;;;;;5072604;28;20037;-71
2023/01/04 02:29:27;;;;;;;5.47;1.98;;;8.00;99.90;;;;;;5072531;28;20047;-71
2023/01/04 02:32:00;;;;;;;5.10;2.17;;;8.10;99.90;;;;;;5072524;28;20068;-72
2023/01/04 02:34:36;;;;;;;8.77;2.25;;;8.10;99.90;;;;;;5072764;28;20044;-71
2023/01/04 02:37:18;;;;;;;6.00;2.10;;;8.10;99.90;;;;;;5072283;28;20044;-71
2023/01/04 02:40:01;;;;;;;3.58;2.10;;;8.10;99.90;;;;;;5072580;28;20493;-72
2023/01/04 02:45:35;;;;;;;4.38;1.73;;;8.20;99.90;;;;;;5072220;28;20048;-71
2023/01/04 02:50:55;;;;;;;3.50;1.85;;;8.30;99.90;;;;;;5072204;28;20036;-72
2023/01/04 02:53:37;;;;;;;4.50;1.70;;;8.30;99.90;;;;;;5072140;28;20043;-71
2023/01/04 02:56:34;;;;;;;3.10;1.55;;;8.30;99.90;;;;;;5072098;28;20090;-72
2023/01/04 02:59:13;;;;;;;3.72;1.92;;;8.30;99.90;;;;;;5072467;28;20052;-71
2023/01/04 03:08:31;;;;;;;4.13;1.73;;;8.40;99.90;;;;;;5071902;28;20044;-72
2023/01/04 03:12:30;;;;;;;4.82;1.75;;;8.40;99.90;;;;;;5071844;28;20044;-72
2023/01/04 03:14:08;;;;;;;4.00;2.00;;;8.40;99.90;;;;;;5072065;28;20048;-72
2023/01/04 03:16:36;;;;;;;5.15;2.13;;;8.40;99.90;;;;;;5071343;28;20049;-71
2023/01/04 03:19:08;;;;;;;4.13;1.88;;;8.50;99.90;;;;;;5071705;28;20086;-72
2023/01/04 03:21:35;;;;;;;3.63;1.67;;;8.50;99.90;;;;;;5071936;28;20172;-72
2023/01/04 03:35:21;;;;;;;3.17;1.50;;;8.60;99.90;;;;;;5071754;28;20044;-72
2023/01/04 03:35:49;;;;;;;6.28;2.00;;;8.80;99.90;;;;;;5071892;28;20044;-72
2023/01/04 03:50:05;;;;;;;2.95;2.20;;;9.00;99.90;;;;;;5071431;28;20045;-72
2023/01/04 03:52:33;;;;;;;2.70;2.10;;;9.10;99.90;;;;;;5071748;28;20040;-72
2023/01/04 03:55:00;;;;;;;2.40;1.95;;;9.20;99.90;;;;;;5071486;28;20093;-72
2023/01/04 03:57:27;;;;;;;3.42;2.05;;;9.20;99.90;;;;;;5071335;28;20045;-72
2023/01/04 03:59:59;;;;;;;2.55;1.65;;;9.20;99.90;;;;;;5071681;28;20071;-72
2023/01/04 04:02:28;;;;;;;2.15;1.70;;;9.30;99.90;;;;;;5071435;28;20485;-72
2023/01/04 04:10:22;;;;;;;1.90;1.60;;;9.40;99.90;;;;;;5071608;28;20048;-72
2023/01/04 04:12:48;;;;;;;2.63;1.80;;;9.40;99.90;;;;;;5071350;28;20490;-72
2023/01/04 04:15:14;;;;;;;2.90;2.00;;;9.40;99.90;;;;;;5071340;28;20072;-72
2023/01/04 04:17:40;;;;;;;2.30;2.10;;;9.50;99.90;;;;;;5071308;28;20059;-73
2023/01/04 04:20:06;;;;;;;2.50;2.03;;;9.50;99.90;;;;;;5071212;28;20501;-72
2023/01/04 04:22:32;;;;;;;3.60;2.10;;;9.50;99.90;;;;;;5071092;28;20509;-72
2023/01/04 04:24:57;;;;;;;5.90;2.50;;;9.50;99.90;;;;;;5054574;28;20039;-72
2023/01/04 04:27:23;;;;;;;6.78;2.70;;;9.60;99.90;;;;;;5071176;28;20032;-72
2023/01/04 04:29:49;;;;;;;7.13;2.90;;;9.60;99.90;;;;;;5056370;28;20036;-72
2023/01/04 04:32:14;;;;;;;3.50;2.60;;;9.60;99.90;;;;;;5074937;28;20524;-72
2023/01/04 04:34:40;;;;;;;3.15;2.40;;;9.60;99.90;;;;;;5074868;28;20032;-72
2023/01/04 04:37:05;;;;;;;3.15;2.35;;;9.70;99.90;;;;;;5074503;28;20493;-72
2023/01/04 04:39:31;;;;;;;3.47;2.80;;;9.70;99.90;;;;;;5074505;28;20048;-72
2023/01/04 04:41:57;;;;;;;4.00;2.38;;;9.70;99.90;;;;;;5074590;28;20052;-70
2023/01/04 04:44:22;;;;;;;5.75;2.70;;;9.80;99.90;;;;;;5074451;28;20044;-72
2023/01/04 04:46:48;;;;;;;4.22;2.35;;;9.80;99.90;;;;;;5074316;28;20063;-71
2023/01/04 04:49:15;;;;;;;5.38;3.38;;;9.80;99.90;;;;;;5074654;28;20052;-72
2023/01/04 04:51:42;;;;;;;4.15;3.13;;;9.80;99.90;;;;;;5074889;28;20097;-72
2023/01/04 04:54:09;;;;;;;3.25;2.63;;;9.90;99.90;;;;;;5057661;28;20562;-71
2023/01/04 04:56:35;;;;;;;5.07;3.30;;;9.90;99.90;;;;;;5074650;28;20505;-71
2023/01/04 04:59:02;;;;;;;3.80;3.25;;;9.90;99.90;;;;;;5074257;28;20039;-71
2023/01/04 05:01:29;;;;;;;3.88;3.47;;;9.90;99.90;;;;;;5075368;28;20052;-71
2023/01/04 05:03:55;;;;;;;3.80;3.38;;;9.90;99.90;;;;;;5074134;28;20111;-71
2023/01/04 05:06:20;;;;;;;4.25;3.30;;;10.00;99.90;;;;;;5075942;28;20115;-70
2023/01/04 05:08:46;;;;;;;4.95;3.75;;;10.10;99.90;;;;;;5074023;28;20043;-71
2023/01/04 05:11:12;;;;;;;5.60;3.58;;;10.10;99.90;;;;;;5074060;28;20040;-71
2023/01/04 05:13:38;;;;;;;5.07;3.30;;;10.10;99.90;;;;;;5074140;28;20072;-71
2023/01/04 05:16:05;;;;;;;4.07;3.63;;;10.10;99.90;;;;;;5073872;28;20086;-71
2023/01/04 05:18:31;;;;;;;4.25;3.85;;;10.20;99.90;;;;;;5073761;28;20493;-71
2023/01/04 05:20:57;;;;;;;4.47;4.07;;;10.20;99.90;;;;;;5073642;28;20041;-71
2023/01/04 05:23:22;;;;;;;4.38;3.97;;;10.20;99.90;;;;;;5073697;28;20049;-71
2023/01/04 05:26:02;;;;;;;7.35;4.07;;;10.30;99.90;;;;;;5073704;28;20041;-71
2023/01/04 05:28:28;;;;;;;6.43;4.68;;;10.30;99.90;;;;;;5074717;28;20127;-71
2023/01/04 05:30:54;;;;;;;4.53;4.00;;;10.30;99.90;;;;;;5073662;28;20569;-71
2023/01/04 05:33:23;;;;;;;5.95;4.88;;;10.30;99.90;;;;;;5073632;28;20110;-70
2023/01/04 05:35:49;;;;;;;5.60;4.80;;;10.30;99.90;;;;;;5073614;28;20040;-71
2023/01/04 05:38:15;;;;;;;4.65;4.18;;;10.30;99.90;;;;;;5073672;28;20117;-71
2023/01/04 05:40:42;;;;;;;6.60;5.20;;;10.40;99.90;;;;;;5073061;28;20063;-71
2023/01/04 05:43:07;;;;;;;7.75;5.47;;;10.40;99.90;;;;;;5073308;28;20045;-71
2023/01/04 05:45:34;;;;;;;7.32;4.68;;;10.40;99.90;;;;;;5073351;28;20119;-71
2023/01/04 05:48:00;;;;;;;6.30;5.38;;;10.50;99.90;;;;;;5072993;28;20051;-71
2023/01/04 05:50:25;;;;;;;6.57;5.15;;;10.40;99.90;;;;;;5073347;28;20033;-71
2023/01/04 05:52:51;;;;;;;7.05;5.80;;;10.40;99.90;;;;;;5056569;28;20071;-71
2023/01/04 05:55:17;;;;;;;8.25;4.80;;;10.40;99.90;;;;;;5073273;28;20040;-71
2023/01/04 05:57:43;;;;;;;8.63;5.40;;;10.40;99.90;;;;;;5073494;28;20055;-71
2023/01/04 06:00:10;;;;;;;7.65;4.60;;;10.40;99.90;;;;;;5073237;28;20040;-71
2023/01/04 06:02:36;;;;;;;7.47;4.93;;;10.40;99.90;;;;;;5073813;28;20041;-71
2023/01/04 06:05:02;;;;;;;12.90;5.35;;;10.50;99.90;;;;;;5072912;28;20116;-71
2023/01/04 06:07:28;;;;;;;10.32;5.28;;;10.40;99.90;;;;;;5072842;28;20040;-71
2023/01/04 06:09:54;;;;;;;7.28;4.78;;;10.40;99.90;;;;;;5072844;28;20040;-71
2023/01/04 06:12:20;;;;;;;5.43;4.30;;;10.50;99.90;;;;;;5072761;28;20100;-71
2023/01/04 06:14:46;;;;;;;5.75;4.80;;;10.50;99.90;;;;;;5072706;28;20119;-72
2023/01/04 06:17:12;;;;;;;6.93;4.80;;;10.50;99.90;;;;;;5072688;28;20076;-71
2023/01/04 06:19:37;;;;;;;6.47;4.68;;;10.60;99.90;;;;;;5072705;28;20042;-72
2023/01/04 06:22:03;;;;;;;6.10;4.18;;;10.60;99.90;;;;;;5073719;28;20440;-72
2023/01/04 06:24:29;;;;;;;6.18;4.25;;;10.60;99.90;;;;;;5072519;28;20044;-71
2023/01/04 06:26:54;;;;;;;8.13;4.10;;;10.60;99.90;;;;;;5072608;28;20029;-71
2023/01/04 06:29:20;;;;;;;6.53;3.72;;;10.60;99.90;;;;;;5072761;28;20040;-72
2023/01/04 06:31:46;;;;;;;5.85;3.83;;;10.60;99.90;;;;;;5072389;28;20114;-72
2023/01/04 06:34:13;;;;;;;9.18;3.85;;;10.60;99.90;;;;;;5072361;28;20083;-71
2023/01/04 06:36:39;;;;;;;6.82;3.15;;;10.60;99.90;;;;;;5072385;28;20047;-71
2023/01/04 06:39:06;;;;;;;4.68;3.17;;;10.70;99.90;;;;;;5072547;28;20044;-72
2023/01/04 06:41:31;;;;;;;6.05;3.30;;;10.60;99.90;;;;;;5072343;28;20037;-72
2023/01/04 06:43:58;;;;;;;4.88;3.50;;;10.70;99.90;;;;;;5072162;28;20032;-71
2023/01/04 06:46:23;;;;;;;3.58;2.42;;;10.70;99.90;;;;;;5072083;28;20040;-71
2023/01/04 06:48:49;;;;;;;4.90;2.00;;;10.70;99.90;;;;;;5071969;28;20061;-72
2023/01/04 06:51:14;;;;;;;2.25;2.05;;;10.70;99.90;;;;;;5071805;28;20058;-72
2023/01/04 06:53:40;;;;;;;4.35;2.30;;;10.70;99.90;;;;;;5071674;28;20037;-71
2023/01/04 06:56:08;;;;;;;2.95;1.90;;;10.70;99.90;;;;;;5072044;28;20059;-71
2023/01/04 06:58:34;;;;;;;2.35;1.55;;;10.70;99.90;;;;;;5071920;28;20115;-71
2023/01/04 07:00:59;;;;;;;2.63;1.95;;;10.70;99.90;;;;;;5071940;28;20038;-71
2023/01/04 07:03:25;;;;;;;2.78;1.80;;;10.80;99.90;;;;;;5071958;28;20044;-72
2023/01/04 07:05:51;;;;;;;2.97;2.10;;;10.80;99.90;;;;;;5072201;28;20044;-72
2023/01/04 07:08:17;;;;;;;4.03;2.17;;;10.80;99.90;;;;;;5071806;28;20539;-72
2023/01/04 07:10:42;;;;;;;3.55;2.88;;;10.80;99.90;;;;;;5072086;28;20085;-71
2023/01/04 07:13:08;;;;;;;2.15;1.83;;;10.80;99.90;;;;;;5071845;28;20413;-71
2023/01/04 07:15:34;;;;;;;2.30;1.80;;;10.80;99.90;;;;;;5071840;28;20068;-71
2023/01/04 07:18:00;;;;;;;2.00;1.80;;;10.80;99.90;;;;;;5071966;28;20126;-71
2023/01/04 07:20:26;;;;;;;3.00;1.83;;;10.80;99.90;;;;;;5071757;28;20535;-72
2023/01/04 07:22:51;;;;;;;2.10;1.60;;;10.80;99.90;;;;;;5071679;28;20044;-72
2023/01/04 07:25:17;;;;;;;2.58;1.98;;;10.80;99.90;;;;;;5071726;28;20032;-72
2023/01/04 07:27:43;;;;;;;3.20;2.40;;;10.90;99.90;;;;;;5071596;28;20117;-71
2023/01/04 07:30:09;;;;;;;2.75;2.15;;;10.90;99.90;;;;;;5071931;28;20129;-72
2023/01/04 07:32:35;;;;;;;3.75;2.30;;;10.90;99.90;;;;;;5071612;28;20497;-71
2023/01/04 07:35:01;;;;;;;3.08;2.13;;;10.90;99.90;;;;;;5071880;28;20131;-72
2023/01/04 07:37:26;;;;;;;3.47;2.20;;;10.80;99.90;;;;;;5071502;28;20067;-72
2023/01/04 07:39:52;;;;;;;2.40;2.00;;;10.80;99.90;;;;;;5072732;28;20050;-72
2023/01/04 07:42:19;;;;;;;3.28;1.63;;;10.90;99.90;;;;;;5071485;28;20078;-72
2023/01/04 07:44:44;;;;;;;2.95;2.05;;;10.80;99.90;;;;;;5071527;28;20523;-72
2023/01/04 07:47:10;;;;;;;2.80;1.77;;;10.80;99.90;;;;;;5054751;28;20036;-71
2023/01/04 07:49:36;;;;;;;2.88;2.00;;;10.80;99.90;;;;;;5071384;28;20040;-71
2023/01/04 07:52:01;;;;;;;2.60;1.83;;;10.90;99.90;;;;;;5073228;28;20047;-72
2023/01/04 07:54:27;;;;;;;4.38;2.05;;;10.90;99.90;;;;;;5071453;28;20120;-72
2023/01/04 07:56:53;;;;;;;2.38;1.88;;;10.90;99.90;;;;;;5071342;28;20044;-71
2023/01/04 07:59:19;;;;;;;2.20;1.80;;;10.90;99.90;;;;;;5071382;28;20037;-72
2023/01/04 08:01:47;;;;;;;3.33;2.13;;;10.90;99.90;;;;;;5071540;28;20048;-72
2023/01/04 08:04:14;;;;;;;4.40;2.70;;;10.90;99.90;;;;;;5073715;28;20037;-72
2023/01/04 08:06:40;;;;;;;3.05;2.20;;;10.90;99.90;;;;;;5075073;28;20042;-72
2023/01/04 08:09:06;;;;;;;4.97;2.38;;;10.90;99.90;;;;;;5075071;28;20036;-72
2023/01/04 08:11:33;;;;;;;3.75;2.30;;;10.90;99.90;;;;;;5075237;28;20053;-72
2023/01/04 08:13:59;;;;;;;6.05;3.33;;;10.90;99.90;;;;;;5074975;28;20072;-72
2023/01/04 08:16:33;;;;;;;3.95;2.30;;;10.80;99.90;;;;;;5075137;28;20067;-71
2023/01/04 08:19:00;;;;;;;3.10;2.78;;;11.00;99.90;;;;;;5074867;28;20500;-72
2023/01/04 08:21:28;;;;;;;5.07;3.22;;;11.00;99.90;;;;;;5074945;28;20481;-72
2023/01/04 08:23:54;;;;;;;5.75;2.70;;;10.90;99.90;;;;;;5075137;28;20496;-72
2023/01/04 08:26:20;;;;;;;3.53;2.60;;;11.00;99.90;;;;;;5074961;28;20043;-72
2023/01/04 08:28:47;;;;;;;6.13;2.67;;;11.00;99.90;;;;;;5076265;28;20106;-72
2023/01/04 08:31:18;;;;;;;5.63;3.30;;;11.00;99.90;;;;;;5074919;28;20127;-72
2023/01/04 08:33:45;;;;;;;4.05;2.70;;;10.90;99.90;;;;;;5074989;28;20055;-72
2023/01/04 08:36:20;;;;;;;5.28;2.80;;;11.00;99.90;;;;;;5074836;28;20393;-72
2023/01/04 08:38:47;;;;;;;3.78;2.53;;;11.00;99.90;;;;;;5074758;28;20040;-72
2023/01/04 08:41:14;;;;;;;4.00;2.40;;;11.00;99.90;;;;;;5074665;28;20044;-72
2023/01/04 08:43:39;;;;;;;5.65;2.50;;;10.90;99.90;;;;;;5074444;28;20046;-72
2023/01/04 08:46:06;;;;;;;3.78;2.58;;;11.00;99.90;;;;;;5074651;28;20119;-72
2023/01/04 08:48:32;;;;;;;3.78;2.22;;;11.00;99.90;;;;;;5074417;28;20562;-72
2023/01/04 08:51:03;;;;;;;5.20;2.20;;;11.00;99.90;;;;;;5074301;28;20123;-72
2023/01/04 08:53:30;;;;;;;2.42;1.70;;;11.00;99.90;;;;;;5074171;28;20040;-72
2023/01/04 08:55:57;;;;;;;3.00;1.85;;;11.00;99.90;;;;;;5074206;28;20043;-72
2023/01/04 08:58:23;;;;;;;3.15;1.90;;;11.00;99.90;;;;;;5074132;28;20089;-72
2023/01/04 09:00:48;;;;;;;3.38;1.70;;;11.00;99.90;;;;;;5074111;28;20074;-72
2023/01/04 09:03:14;;;;;;;4.43;1.48;;;11.00;99.90;;;;;;5075447;28;20055;-72
2023/01/04 09:05:40;;;;;;;2.95;1.38;;;11.00;99.90;;;;;;5074083;28;20043;-72
2023/01/04 09:08:07;;;;;;;2.67;1.30;;;11.10;99.90;;;;;;5074066;28;20044;-72
2023/01/04 09:10:35;;;;;;;2.72;1.60;;;11.10;99.90;;;;;;5074032;28;20114;-72
2023/01/04 09:13:00;;;;;;;4.25;1.67;;;11.10;99.90;;;;;;5073877;28;20040;-72
2023/01/04 09:15:26;;;;;;;3.20;1.48;;;11.10;99.90;;;;;;5073010;28;20043;-72
2023/01/04 09:17:51;;;;;;;2.75;1.30;;;11.00;99.90;;;;;;5073752;28;20042;-73
2023/01/04 09:20:17;;;;;;;4.60;1.40;;;11.00;99.90;;;;;;5073771;28;20051;-73
2023/01/04 09:22:43;;;;;;;3.13;1.50;;;11.00;99.90;;;;;;5074010;28;20102;-73
2023/01/04 09:25:08;;;;;;;1.88;1.17;;;11.00;99.90;;;;;;5073927;28;20040;-72
2023/01/04 09:27:34;;;;;;;3.42;1.00;;;11.00;99.90;;;;;;5073796;28;20552;-72
2023/01/04 09:30:00;;;;;;;1.52;1.10;;;11.10;99.90;;;;;;5073532;28;20041;-72
2023/01/04 09:32:25;;;;;;;2.47;1.00;;;11.00;99.90;;;;;;5073522;28;20040;-73
2023/01/04 09:34:51;;;;;;;2.55;0.90;;;11.00;99.90;;;;;;5073721;28;20036;-72
2023/01/04 09:37:17;;;;;;;2.22;0.75;;;11.00;99.90;;;;;;5073365;28;20387;-72
2023/01/04 09:39:43;;;;;;;3.10;0.70;;;11.10;99.90;;;;;;5073358;28;20048;-72
2023/01/04 09:42:27;;;;;;;3.15;0.88;;;11.00;99.90;;;;;;5073436;28;20044;-72
2023/01/04 09:45:00;;;;;;;1.42;0.70;;;11.00;99.90;;;;;;5074761;28;20041;-72
2023/01/04 09:47:26;;;;;;;2.25;0.90;;;11.10;99.90;;;;;;5073478;28;20093;-72
2023/01/04 09:50:13;;;;;;;2.83;1.10;;;11.00;99.90;;;;;;5073025;28;20036;-72
2023/01/04 09:53:07;;;;;;;3.28;0.90;;;11.00;99.90;;;;;;5073375;28;20040;-72
2023/01/04 09:55:42;;;;;;;1.52;0.70;;;11.10;99.90;;;;;;5073079;28;20040;-72
2023/01/04 09:58:21;;;;;;;1.80;0.90;;;11.00;99.90;;;;;;5074044;28;20028;-72
2023/01/04 10:01:09;;;;;;;2.72;1.10;;;11.10;99.90;;;;;;5072931;28;20132;-73
2023/01/04 10:03:38;;;;;;;1.90;0.95;;;11.10;99.90;;;;;;5072418;28;20090;-73
2023/01/04 10:06:08;;;;;;;2.58;1.10;;;11.10;99.90;;;;;;5072842;28;20098;-72
2023/01/04 10:08:34;;;;;;;2.90;1.02;;;11.10;99.90;;;;;;5072715;28;20075;-72
2023/01/04 10:11:17;;;;;;;5.78;1.60;;;11.10;99.90;;;;;;5072777;28;20047;-72
2023/01/04 10:13:50;;;;;;;5.88;1.63;;;11.20;99.90;;;;;;5072986;28;20075;-72
2023/01/04 10:16:19;;;;;;;;;;;11.20;99.90;;;;;;5073283;28;20536;-72
2023/01/04 10:18:57;;;;;;;7.57;1.75;;;11.30;99.90;;;;;;5072544;28;19923;-72
2023/01/04 10:21:41;;;;;;;5.60;1.35;;;11.30;99.90;;;;;;5072560;28;20048;-72
2023/01/04 10:24:24;;;;;;;12.18;2.13;;;11.40;99.90;;;;;;5072771;28;20503;-72
2023/01/04 10:27:07;;;;;;;14.18;2.28;;;11.40;99.90;;;;;;5072344;28;20448;-72
2023/01/04 10:29:45;;;;;;;10.23;2.08;;;11.50;99.90;;;;;;5072743;28;20441;-72
2023/01/04 10:32:34;;;;;;;14.57;2.90;;;11.50;99.90;;;;;;5073896;28;20512;-72
2023/01/04 10:34:59;;;;;;;12.93;2.33;;;11.50;99.90;;;;;;5072312;28;20044;-72
2023/01/04 10:37:33;;;;;;;14.50;2.65;;;11.50;99.90;;;;;;5072427;28;20052;-72
2023/01/04 10:40:00;;;;;;;18.23;2.92;;;11.60;99.90;;;;;;5072344;28;20040;-72
2023/01/04 10:42:30;;;;;;;15.98;3.30;;;11.60;99.90;;;;;;5072282;28;20082;-73
2023/01/04 10:45:12;;;;;;;16.88;3.05;;;11.60;99.90;;;;;;5072154;28;20040;-72
2023/01/04 10:47:44;;;;;;;19.80;4.03;;;11.70;99.90;;;;;;5072380;28;20063;-72
2023/01/04 10:50:54;;;;;;;21.33;3.65;;;11.80;99.90;;;;;;5055616;28;20037;-72
2023/01/04 10:53:26;;;;;;;22.00;4.03;;;11.80;99.90;;;;;;5072054;28;20555;-72
2023/01/04 10:56:07;;;;;;;21.58;4.47;;;11.80;99.90;;;;;;5072325;28;20131;-72
2023/01/04 10:58:43;;;;;;;21.08;3.90;;;11.80;99.90;;;;;;5071997;28;20036;-72
2023/01/04 11:01:33;;;;;;;21.58;3.72;;;11.80;99.90;;;;;;5072147;28;20105;-72
2023/01/04 11:04:22;;;;;;;19.83;4.00;;;11.80;99.90;;;;;;5071960;28;20048;-73
2023/01/04 11:06:58;;;;;;;22.42;4.43;;;11.80;99.90;;;;;;5072140;28;20040;-72
2023/01/04 11:09:31;;;;;;;24.13;4.30;;;11.80;99.90;;;;;;5073445;28;20040;-72
2023/01/04 11:11:57;;;;;;;;;;;11.80;99.90;;;;;;5072341;28;20126;-73
2023/01/04 11:14:24;;;;;;;31.35;5.20;;;11.70;99.90;;;;;;5071883;28;19986;-73
2023/01/04 11:16:55;;;;;;;24.83;4.53;;;11.80;99.90;;;;;;5071966;28;20052;-73
2023/01/04 11:19:20;;;;;;;31.48;5.15;;;11.70;99.90;;;;;;5071844;28;20117;-73
2023/01/04 11:21:57;;;;;;;21.48;4.03;;;11.80;99.90;;;;;;5055223;28;20076;-73
2023/01/04 11:24:27;;;;;;;26.90;4.68;;;11.80;99.90;;;;;;5071781;28;20062;-73
2023/01/04 11:26:55;;;;;;;28.58;4.70;;;11.70;99.90;;;;;;5071639;28;20493;-72
2023/01/04 11:29:29;;;;;;;25.80;4.25;;;11.80;99.90;;;;;;5071708;28;20055;-73
2023/01/04 11:32:00;;;;;;;27.30;4.38;;;11.80;99.90;;;;;;5055220;28;20123;-73
2023/01/04 11:34:44;;;;;;;27.45;4.28;;;11.80;99.90;;;;;;5071670;28;20055;-72
2023/01/04 11:37:29;;;;;;;30.20;5.47;;;11.90;99.90;;;;;;5071523;28;20047;-72
2023/01/04 11:40:10;;;;;;;26.80;4.30;;;11.90;99.90;;;;;;5075256;28;20047;-73
2023/01/04 11:42:35;;;;;;;29.80;4.57;;;11.90;99.90;;;;;;5075694;28;20044;-72
2023/01/04 11:45:01;;;;;;;29.40;4.72;;;11.80;99.90;;;;;;5075548;28;20416;-72
2023/01/04 11:47:27;;;;;;;22.77;3.80;;;11.90;99.90;;;;;;5075451;28;20040;-72
2023/01/04 11:49:53;;;;;;;29.65;4.82;;;12.00;99.90;;;;;;5076508;28;20083;-73
2023/01/04 11:52:34;;;;;;;21.50;3.80;;;12.00;99.90;;;;;;5075413;28;20040;-73
2023/01/04 11:55:16;;;;;;;18.42;3.20;;;12.00;99.90;;;;;;5075687;28;20126;-72
2023/01/04 11:57:41;;;;;;;27.83;4.10;;;12.00;99.90;;;;;;5058613;28;20032;-72
2023/01/04 12:00:12;;;;;;;20.60;3.85;;;12.00;99.90;;;;;;5075238;28;20175;-73
2023/01/04 12:02:38;;;;;;;20.90;3.70;;;12.00;99.90;;;;;;5075456;28;20089;-73
2023/01/04 12:05:20;;;;;;;16.25;3.22;;;12.00;99.90;;;;;;5075172;28;20120;-72
2023/01/04 12:07:46;;;;;;;19.53;3.63;;;12.10;99.90;;;;;;5075096;28;20052;-72
2023/01/04 12:10:25;;;;;;;17.40;3.80;;;12.00;99.90;;;;;;5075154;28;20044;-73
2023/01/04 12:12:52;;;;;;;18.10;3.20;;;12.00;99.90;;;;;;5075209;28;20435;-72
2023/01/04 12:15:26;;;;;;;18.52;3.40;;;12.00;99.90;;;;;;5075495;28;20524;-72
2023/01/04 12:17:56;;;;;;;17.90;2.67;;;12.00;99.90;;;;;;5074917;28;20036;-72
2023/01/04 12:20:26;;;;;;;15.95;2.80;;;12.00;99.90;;;;;;5074937;28;20048;-73
2023/01/04 12:22:52;;;;;;;15.57;2.03;;;12.10;99.90;;;;;;5074636;28;20040;-73
2023/01/04 12:25:44;;;;;;;8.32;1.35;;;12.10;99.90;;;;;;5074839;28;20035;-72
2023/01/04 12:28:34;;;;;;;9.70;1.60;;;12.10;99.90;;;;;;5074710;28;20040;-73
2023/01/04 12:31:18;;;;;;;9.63;1.15;;;12.10;99.90;;;;;;5074698;28;20063;-73
2023/01/04 12:33:56;;;;;;;6.93;1.30;;;12.10;99.90;;;;;;5074872;28;20040;-72
2023/01/04 12:36:36;;;;;;;5.38;1.02;;;12.10;99.90;;;;;;5074961;28;20045;-73
2023/01/04 12:39:13;;;;;;;5.00;0.93;;;12.10;99.90;;;;;;5074574;28;20083;-73
2023/01/04 12:41:39;;;;;;;10.27;1.70;;;12.10;99.90;;;;;;5074783;28;20413;-73
2023/01/04 12:44:36;;;;;;;6.30;1.02;;;12.10;99.90;;;;;;5074757;28;20041;-73
2023/01/04 12:49:56;;;;;;;6.53;1.38;;;12.10;99.90;;;;;;5073009;28;20119;-72
2023/01/04 12:52:22;;;;;;;8.73;1.50;;;12.10;99.90;;;;;;5074609;28;20067;-72
2023/01/04 12:54:56;;;;;;;7.43;1.55;;;12.10;99.90;;;;;;5074530;28;20506;-72
2023/01/04 12:57:23;;;;;;;10.80;1.92;;;12.10;99.90;;;;;;5074205;28;20115;-72
2023/01/04 12:59:59;;;;;;;11.68;1.90;;;12.00;99.90;;;;;;5057380;28;20044;-72
2023/01/04 13:02:28;;;;;;;8.98;2.42;;;12.00;99.90;;;;;;5073993;28;20051;-72
2023/01/04 13:05:01;;;;;;;14.05;2.50;;;12.00;99.90;;;;;;5074127;28;20123;-72
2023/01/04 13:07:38;;;;;;;12.40;2.28;;;12.00;99.90;;;;;;5073994;28;20447;-72
2023/01/04 13:10:32;;;;;;;14.20;2.90;;;12.00;99.90;;;;;;5074002;28;20036;-72
2023/01/04 13:13:08;;;;;;;;;;;12.00;99.90;;;;;;5074346;28;20040;-72
2023/01/04 13:15:34;;;;;;;18.08;3.20;;;11.90;99.90;;;;;;5073910;28;20008;-72
2023/01/04 13:18:00;;;;;;;17.58;2.83;;;11.90;99.90;;;;;;5074004;28;20123;-72
2023/01/04 13:20:29;;;;;;;14.57;2.75;;;11.90;99.90;;;;;;5073794;28;20123;-72
2023/01/04 13:22:57;;;;;;;20.15;3.08;;;11.90;99.90;;;;;;5073595;28;20055;-72
2023/01/04 13:25:24;;;;;;;15.95;2.72;;;11.90;99.90;;;;;;5073944;28;20040;-72
2023/01/04 13:28:01;;;;;;;20.75;3.38;;;11.90;99.90;;;;;;5073564;28;20085;-72
2023/01/04 13:30:32;;;;;;;20.88;3.55;;;11.90;99.90;;;;;;5073546;28;20075;-72
2023/01/04 13:33:05;;;;;;;18.60;3.13;;;11.90;99.90;;;;;;5073828;28;20044;-72
2023/01/04 13:35:31;;;;;;;19.63;3.15;;;11.90;99.90;;;;;;5073810;28;20084;-72
2023/01/04 13:37:59;;;;;;;18.80;3.60;;;11.90;99.90;;;;;;5073429;28;20557;-72
2023/01/04 13:40:36;;;;;;;18.50;3.40;;;11.90;99.90;;;;;;5073372;28;20044;-72
2023/01/04 13:43:15;;;;;;;21.38;4.82;;;11.90;99.90;;;;;;5056601;28;20127;-73
2023/01/04 13:46:04;;;;;;;18.15;3.88;;;11.90;99.90;;;;;;5073328;28;20128;-72
2023/01/04 13:48:38;;;;;;;17.40;3.88;;;11.90;99.90;;;;;;5073104;28;20036;-72